Time;durP1;ratioP1;P1;durP2;ratioP2;P2;SDS_P1;SDS_P2;PMS_P1;PMS_P2;Temp;Humidity;BMP_temperature;BMP_pressure;BME280_temperature;BME280_humidity;BME280_pressure;Samples;Min_cycle;Max_cycle;Signal;HPM_P1;HPM_P2
2023/03/19 00:02:23;;;;;;;30.02;15.52;;;21.70;57.60;;;;;;5070996;28;20082;-77
2023/03/19 00:04:49;;;;;;;27.23;15.25;;;21.80;57.50;;;;;;5071158;28;20029;-77
2023/03/19 00:07:15;;;;;;;25.05;15.18;;;21.80;57.60;;;;;;5071036;28;20082;-78
2023/03/19 00:09:43;;;;;;;25.00;14.55;;;21.80;57.50;;;;;;5070800;28;20798;-78
2023/03/19 00:12:10;;;;;;;25.20;15.50;;;21.80;57.40;;;;;;5053299;28;20707;-78
2023/03/19 00:14:38;;;;;;;27.42;15.18;;;21.90;57.40;;;;;;5050965;28;20037;-78
2023/03/19 00:17:04;;;;;;;26.98;14.57;;;21.70;57.30;;;;;;5051035;28;20103;-77
2023/03/19 00:19:30;;;;;;;21.65;12.75;;;21.70;57.20;;;;;;5050691;28;20798;-78
2023/03/19 00:21:57;;;;;;;26.95;12.93;;;21.80;57.20;;;;;;5050805;28;20489;-78
2023/03/19 00:24:23;;;;;;;27.45;14.98;;;21.70;57.10;;;;;;5054932;28;20037;-78
2023/03/19 00:26:50;;;;;;;26.92;15.10;;;21.70;57.00;;;;;;5054824;28;20043;-78
2023/03/19 00:29:16;;;;;;;32.20;15.02;;;21.70;56.90;;;;;;5054892;28;20151;-78
2023/03/19 00:31:42;;;;;;;33.20;16.08;;;21.70;56.90;;;;;;5036786;28;20044;-78
2023/03/19 00:34:09;;;;;;;31.08;16.70;;;21.70;57.00;;;;;;5054922;28;20104;-77
2023/03/19 00:36:36;;;;;;;28.05;16.92;;;21.60;56.90;;;;;;5019299;28;20106;-77
2023/03/19 00:39:03;;;;;;;31.23;16.08;;;21.60;57.00;;;;;;5054767;28;20051;-77
2023/03/19 00:41:29;;;;;;;33.45;16.20;;;21.60;57.10;;;;;;5054338;28;20035;-77
2023/03/19 00:43:56;;;;;;;29.70;16.75;;;21.60;57.10;;;;;;5054906;28;20041;-77
2023/03/19 00:46:23;;;;;;;29.65;16.58;;;21.50;57.10;;;;;;5054595;28;20037;-77
2023/03/19 00:48:52;;;;;;;30.67;15.93;;;21.60;57.10;;;;;;5019320;28;20496;-77
2023/03/19 00:51:19;;;;;;;28.85;16.63;;;21.60;57.20;;;;;;5054174;28;20491;-78
2023/03/19 00:53:45;;;;;;;28.83;16.88;;;21.40;57.10;;;;;;5036564;28;20473;-77
2023/03/19 00:56:13;;;;;;;29.05;16.05;;;21.40;57.00;;;;;;5054208;28;20131;-77
2023/03/19 00:58:42;;;;;;;31.73;16.48;;;21.40;57.10;;;;;;5059641;28;20510;-77
2023/03/19 01:01:10;;;;;;;25.88;15.25;;;21.40;57.00;;;;;;5056180;28;20460;-77
2023/03/19 01:03:36;;;;;;;28.98;16.10;;;21.50;57.00;;;;;;5074084;28;20745;-77
2023/03/19 01:06:04;;;;;;;28.27;15.73;;;21.40;56.80;;;;;;5056479;28;20039;-78
2023/03/19 01:08:30;;;;;;;27.23;14.77;;;21.50;56.80;;;;;;5074207;28;20028;-77
2023/03/19 01:11:04;;;;;;;30.70;16.67;;;21.50;56.80;;;;;;5047118;28;20048;-77
2023/03/19 01:13:31;;;;;;;31.63;16.48;;;21.40;56.60;;;;;;5054876;28;20048;-78
2023/03/19 01:15:57;;;;;;;33.17;17.15;;;21.50;56.60;;;;;;5054881;28;20107;-78
2023/03/19 01:18:23;;;;;;;31.85;17.58;;;21.50;56.60;;;;;;5054747;28;20124;-78
2023/03/19 01:20:49;;;;;;;35.90;17.60;;;21.40;56.40;;;;;;5054651;28;20456;-78
2023/03/19 01:23:15;;;;;;;27.58;16.98;;;21.40;56.40;;;;;;5054659;28;20081;-78
2023/03/19 01:25:41;;;;;;;27.13;15.65;;;21.60;56.40;;;;;;5071408;28;20528;-78
2023/03/19 01:28:07;;;;;;;28.02;16.05;;;21.50;56.30;;;;;;5071463;28;20042;-78
2023/03/19 01:30:35;;;;;;;26.10;15.32;;;21.50;56.30;;;;;;5037563;28;20036;-77
2023/03/19 01:33:05;;;;;;;29.48;15.95;;;21.40;56.30;;;;;;5053939;28;20044;-78
2023/03/19 01:35:51;;;;;;;26.45;14.88;;;21.40;56.40;;;;;;5071171;28;20052;-78
2023/03/19 01:38:19;;;;;;;26.55;14.60;;;21.30;56.40;;;;;;5054495;28;20098;-78
2023/03/19 01:40:48;;;;;;;22.70;14.25;;;21.30;56.40;;;;;;5044024;28;20098;-78
2023/03/19 01:43:21;;;;;;;30.02;14.65;;;21.20;56.30;;;;;;5073671;28;20032;-78
2023/03/19 01:45:55;;;;;;;23.20;14.00;;;21.20;56.30;;;;;;5072304;28;20036;-78
2023/03/19 01:48:50;;;;;;;22.85;12.90;;;21.30;56.40;;;;;;5070270;28;20036;-78
2023/03/19 01:51:25;;;;;;;25.02;13.05;;;21.30;56.40;;;;;;5072087;28;20039;-78
2023/03/19 01:54:25;;;;;;;29.00;13.45;;;21.20;56.20;;;;;;4994881;28;20048;-77
2023/03/19 01:57:10;;;;;;;20.15;12.32;;;21.10;56.30;;;;;;5010997;28;20443;-77
2023/03/19 02:00:15;;;;;;;24.63;13.38;;;21.30;56.20;;;;;;4971999;28;20078;-77
2023/03/19 02:02:47;;;;;;;23.17;13.10;;;21.20;56.00;;;;;;4972026;28;20105;-77
2023/03/19 02:05:36;;;;;;;26.90;14.73;;;21.30;56.10;;;;;;4971412;28;20050;-77
2023/03/19 02:08:08;;;;;;;23.30;14.35;;;21.30;56.10;;;;;;4955736;28;20426;-77
2023/03/19 02:10:35;;;;;;;25.83;15.63;;;21.30;56.00;;;;;;4971405;28;20535;-77
2023/03/19 02:13:01;;;;;;;29.17;14.88;;;21.30;56.00;;;;;;4971826;28;20856;-78
2023/03/19 02:15:27;;;;;;;29.23;15.07;;;21.20;55.80;;;;;;4955408;28;20046;-78
2023/03/19 02:17:53;;;;;;;32.90;16.17;;;21.30;55.90;;;;;;4972079;28;20046;-78
2023/03/19 02:20:46;;;;;;;27.23;16.45;;;21.20;55.80;;;;;;4955807;28;20121;-78
2023/03/19 02:23:25;;;;;;;34.13;18.42;;;21.20;55.70;;;;;;4971734;28;20096;-77
2023/03/19 02:26:10;;;;;;;32.65;19.38;;;21.30;55.70;;;;;;4955490;28;20031;-77
2023/03/19 02:28:41;;;;;;;28.25;16.65;;;21.30;55.70;;;;;;4955760;28;20042;-78
2023/03/19 02:31:08;;;;;;;39.67;21.20;;;21.20;55.50;;;;;;5034326;28;20438;-77
2023/03/19 02:33:34;;;;;;;34.83;20.27;;;21.20;55.50;;;;;;5071295;28;20475;-78
2023/03/19 02:36:03;;;;;;;36.38;19.35;;;21.20;55.60;;;;;;5070986;28;20128;-78
2023/03/19 02:38:32;;;;;;;30.98;18.63;;;21.20;55.60;;;;;;5072654;28;20097;-78
2023/03/19 02:41:04;;;;;;;36.05;18.80;;;21.10;55.70;;;;;;5029575;28;20049;-78
2023/03/19 02:43:33;;;;;;;36.15;20.73;;;21.10;55.70;;;;;;5030213;28;20033;-77
2023/03/19 02:46:01;;;;;;;28.33;17.33;;;21.10;55.80;;;;;;4992978;28;20038;-78
2023/03/19 02:48:27;;;;;;;31.42;19.20;;;21.10;55.80;;;;;;5010203;28;20128;-77
2023/03/19 02:50:53;;;;;;;32.45;18.52;;;21.00;55.60;;;;;;5009824;28;20053;-78
2023/03/19 02:53:19;;;;;;;33.67;19.42;;;21.00;55.60;;;;;;4993788;28;20041;-78
2023/03/19 02:55:45;;;;;;;33.45;18.38;;;21.00;55.60;;;;;;5009876;28;20045;-78
2023/03/19 02:58:12;;;;;;;35.42;19.25;;;21.00;55.60;;;;;;4993581;28;20048;-78
2023/03/19 03:00:38;;;;;;;31.02;18.50;;;20.90;55.60;;;;;;4993502;28;20057;-78
2023/03/19 03:03:06;;;;;;;32.22;17.65;;;21.00;55.40;;;;;;5009823;28;20474;-78
2023/03/19 03:05:32;;;;;;;33.95;19.67;;;21.10;55.40;;;;;;4990538;28;20057;-78
2023/03/19 03:07:59;;;;;;;34.08;19.35;;;20.90;55.30;;;;;;4993369;28;20164;-78
2023/03/19 03:10:26;;;;;;;34.85;17.63;;;21.10;55.20;;;;;;5009518;28;20050;-77
2023/03/19 03:12:52;;;;;;;37.30;20.45;;;21.10;55.20;;;;;;5044546;28;20078;-78
2023/03/19 03:15:18;;;;;;;37.05;21.15;;;21.10;55.10;;;;;;5052547;28;20044;-78
2023/03/19 03:17:44;;;;;;;41.60;21.60;;;21.10;55.00;;;;;;5071143;28;20059;-78
2023/03/19 03:20:13;;;;;;;34.30;19.63;;;21.00;54.90;;;;;;5070590;28;20362;-78
2023/03/19 03:22:39;;;;;;;32.17;18.17;;;21.20;54.90;;;;;;5071479;28;20500;-78
2023/03/19 03:25:06;;;;;;;33.25;19.30;;;21.10;54.80;;;;;;5071603;28;20500;-78
2023/03/19 03:27:32;;;;;;;33.67;19.17;;;21.20;54.80;;;;;;5070112;28;20578;-78
2023/03/19 03:29:58;;;;;;;42.70;19.70;;;21.20;54.70;;;;;;5071453;28;20028;-78
2023/03/19 03:32:26;;;;;;;28.40;18.38;;;21.20;54.70;;;;;;5071350;28;20392;-77
2023/03/19 03:34:52;;;;;;;34.70;18.67;;;21.10;54.70;;;;;;5071491;28;20101;-78
2023/03/19 03:37:18;;;;;;;34.65;18.70;;;21.10;54.70;;;;;;5071412;28;20045;-78
2023/03/19 03:39:45;;;;;;;29.23;17.42;;;21.00;54.70;;;;;;5071340;28;20046;-78
2023/03/19 03:42:11;;;;;;;29.38;17.80;;;21.00;54.70;;;;;;5077524;28;20036;-78
2023/03/19 03:44:38;;;;;;;34.80;18.48;;;21.10;54.80;;;;;;5091587;28;20043;-78
2023/03/19 03:47:05;;;;;;;34.97;18.48;;;21.00;54.70;;;;;;5090120;28;20044;-78
2023/03/19 03:49:31;;;;;;;32.53;18.10;;;20.90;54.80;;;;;;5090329;28;20059;-78
2023/03/19 03:51:57;;;;;;;34.22;19.20;;;21.00;54.80;;;;;;5089865;28;20702;-77
2023/03/19 03:54:23;;;;;;;37.47;19.65;;;20.90;54.70;;;;;;5091249;28;20082;-78
2023/03/19 03:56:50;;;;;;;31.38;17.52;;;20.90;54.70;;;;;;5091122;28;20124;-77
2023/03/19 03:59:16;;;;;;;29.15;17.67;;;20.90;54.70;;;;;;5089980;28;20089;-78
2023/03/19 04:01:42;;;;;;;32.35;17.90;;;21.00;54.60;;;;;;5089610;28;20415;-78
2023/03/19 04:04:08;;;;;;;34.63;19.10;;;20.90;54.70;;;;;;5090328;28;20036;-78
2023/03/19 04:06:34;;;;;;;33.55;18.50;;;20.90;54.50;;;;;;5090094;28;20400;-77
2023/03/19 04:09:13;;;;;;;34.67;18.50;;;21.00;54.50;;;;;;5089919;28;20039;-77
2023/03/19 04:11:40;;;;;;;34.50;17.83;;;20.90;54.50;;;;;;5089748;28;20472;-77
2023/03/19 04:14:07;;;;;;;33.30;17.50;;;21.00;54.40;;;;;;5091219;28;20391;-77
2023/03/19 04:16:34;;;;;;;33.20;18.10;;;21.00;54.30;;;;;;5089877;28;20082;-78
2023/03/19 04:19:00;;;;;;;31.20;16.60;;;21.00;54.20;;;;;;5090973;28;20036;-78
2023/03/19 04:21:27;;;;;;;30.67;15.85;;;21.00;54.20;;;;;;5089813;28;20118;-77
2023/03/19 04:23:53;;;;;;;26.55;16.55;;;21.00;54.10;;;;;;5090905;28;20028;-77
2023/03/19 04:26:19;;;;;;;30.70;16.92;;;21.10;54.20;;;;;;5089946;28;20104;-78
2023/03/19 04:28:45;;;;;;;28.83;15.70;;;21.10;54.10;;;;;;5089342;28;20399;-78
2023/03/19 04:31:12;;;;;;;28.20;15.32;;;21.00;54.00;;;;;;5089517;28;20384;-78
2023/03/19 04:33:42;;;;;;;27.90;16.70;;;21.10;54.00;;;;;;5089543;28;20032;-78
2023/03/19 04:36:09;;;;;;;30.67;17.13;;;21.00;53.90;;;;;;5089551;28;20051;-78
2023/03/19 04:38:37;;;;;;;28.73;15.80;;;21.10;54.00;;;;;;5089564;28;20134;-78
2023/03/19 04:41:03;;;;;;;33.78;17.73;;;21.10;54.00;;;;;;5089713;28;20108;-78
2023/03/19 04:43:31;;;;;;;27.88;16.80;;;21.00;54.00;;;;;;5089407;28;20024;-78
2023/03/19 04:45:57;;;;;;;33.67;18.38;;;21.00;54.00;;;;;;5089391;28;20469;-78
2023/03/19 04:48:25;;;;;;;31.88;16.70;;;21.00;54.00;;;;;;5089816;28;20439;-77
2023/03/19 04:50:55;;;;;;;32.55;18.77;;;21.00;54.10;;;;;;5089381;28;20467;-77
2023/03/19 04:53:22;;;;;;;36.13;20.10;;;21.10;53.70;;;;;;5089369;28;20063;-77
2023/03/19 04:55:49;;;;;;;37.22;21.00;;;21.10;53.50;;;;;;5089230;28;20107;-77
2023/03/19 04:58:17;;;;;;;54.90;26.20;;;21.30;53.60;;;;;;5089314;28;20060;-77
2023/03/19 05:00:47;;;;;;;42.70;22.85;;;21.30;53.70;;;;;;5075493;28;20482;-77
2023/03/19 05:03:17;;;;;;;41.30;21.63;;;21.30;53.60;;;;;;5069119;28;20032;-78
2023/03/19 05:05:44;;;;;;;41.25;22.00;;;21.40;53.60;;;;;;5068147;28;20135;-75
2023/03/19 05:08:12;;;;;;;33.90;19.00;;;21.40;53.70;;;;;;5051619;28;20561;-74
2023/03/19 05:10:39;;;;;;;36.90;18.77;;;21.60;56.50;;;;;;5054808;28;20044;-78
2023/03/19 05:13:06;;;;;;;40.45;19.98;;;22.20;56.60;;;;;;5054854;28;20032;-76
2023/03/19 05:15:35;;;;;;;32.35;17.65;;;22.70;57.20;;;;;;5054806;28;20139;-75
2023/03/19 05:18:06;;;;;;;30.90;17.75;;;22.70;55.20;;;;;;5054955;28;20047;-76
2023/03/19 05:20:38;;;;;;;33.53;17.98;;;22.80;51.40;;;;;;5054876;28;20135;-81
2023/03/19 05:23:08;;;;;;;31.08;17.58;;;22.70;49.80;;;;;;5054747;28;20085;-77
2023/03/19 05:25:46;;;;;;;42.60;21.00;;;22.70;48.50;;;;;;5054926;28;20044;-80
2023/03/19 05:28:17;;;;;;;37.15;19.00;;;22.50;47.00;;;;;;5054822;28;20235;-80
2023/03/19 05:30:44;;;;;;;43.47;21.33;;;22.30;47.40;;;;;;5054742;28;20045;-81
2023/03/19 05:33:24;;;;;;;38.80;21.20;;;22.30;47.90;;;;;;5054728;28;20138;-80
2023/03/19 05:35:52;;;;;;;36.65;20.58;;;22.20;48.50;;;;;;5054923;28;20084;-80
2023/03/19 05:38:32;;;;;;;43.05;20.92;;;22.00;49.20;;;;;;5063760;28;20048;-80
2023/03/19 05:41:05;;;;;;;38.00;19.75;;;21.90;50.00;;;;;;5072396;28;20147;-80
2023/03/19 05:43:50;;;;;;;40.40;19.17;;;21.90;50.50;;;;;;5072657;28;20029;-80
2023/03/19 05:46:31;;;;;;;33.58;18.17;;;22.00;50.90;;;;;;5072808;28;20032;-82
2023/03/19 05:48:58;;;;;;;33.47;18.65;;;21.90;51.40;;;;;;5055963;28;20051;-82
2023/03/19 05:51:24;;;;;;;35.65;17.92;;;21.90;51.60;;;;;;5073872;28;20040;-82
2023/03/19 05:53:50;;;;;;;38.22;17.42;;;21.90;51.80;;;;;;5072543;28;20438;-81
2023/03/19 05:56:33;;;;;;;38.67;18.80;;;21.80;51.70;;;;;;5055768;28;20105;-82
2023/03/19 05:59:37;;;;;;;38.15;20.10;;;21.90;52.10;;;;;;5031653;28;20401;-79
2023/03/19 06:02:21;;;;;;;31.70;19.45;;;21.90;49.40;;;;;;5014858;28;20045;-84
2023/03/19 06:04:51;;;;;;;35.58;19.95;;;22.00;47.80;;;;;;5014849;28;20088;-81
2023/03/19 06:07:21;;;;;;;28.38;17.88;;;22.20;48.10;;;;;;5014824;28;20033;-82
2023/03/19 06:09:48;;;;;;;37.42;19.08;;;22.20;49.40;;;;;;5030839;28;20041;-80
2023/03/19 06:12:15;;;;;;;30.02;18.38;;;22.30;46.00;;;;;;5014400;28;20081;-82
2023/03/19 06:15:01;;;;;;;31.27;16.90;;;22.20;47.10;;;;;;5029712;28;20041;-76
2023/03/19 06:17:46;;;;;;;27.08;16.48;;;22.20;47.70;;;;;;5030734;28;20049;-75
2023/03/19 06:20:16;;;;;;;31.05;17.50;;;22.30;47.30;;;;;;5013942;28;20040;-75
2023/03/19 06:22:43;;;;;;;8.20;3.83;;;22.50;46.30;;;;;;5014091;28;20465;-75
2023/03/19 06:25:10;;;;;;;6.93;2.90;;;22.60;62.30;;;;;;5013893;28;20041;-78
2023/03/19 06:27:37;;;;;;;7.47;5.10;;;22.70;63.90;;;;;;4997800;28;20513;-78
2023/03/19 06:30:25;;;;;;;5.70;3.50;;;22.90;62.70;;;;;;5042002;28;20037;-78
2023/03/19 06:32:52;;;;;;;12.10;5.47;;;22.90;59.10;;;;;;5071279;28;20529;-81
2023/03/19 06:35:20;;;;;;;10.63;5.03;;;23.00;58.50;;;;;;5071635;28;20049;-78
2023/03/19 06:37:47;;;;;;;8.85;4.43;;;23.00;60.70;;;;;;5088461;28;20036;-79
2023/03/19 06:40:14;;;;;;;24.40;12.15;;;22.90;57.00;;;;;;5071141;28;20037;-77
2023/03/19 06:42:44;;;;;;;29.20;14.55;;;23.00;56.50;;;;;;5072614;28;20048;-77
2023/03/19 06:45:11;;;;;;;28.75;13.85;;;23.00;55.30;;;;;;5071433;28;20042;-83
2023/03/19 06:47:40;;;;;;;20.48;11.75;;;23.00;55.50;;;;;;5073913;28;20043;-77
2023/03/19 06:50:07;;;;;;;24.33;12.93;;;23.00;55.60;;;;;;5072188;28;20074;-77
2023/03/19 06:52:33;;;;;;;25.30;14.68;;;23.00;57.60;;;;;;5072507;28;20067;-81
2023/03/19 06:54:59;;;;;;;18.90;10.82;;;23.00;56.00;;;;;;5072305;28;20497;-77
2023/03/19 06:57:25;;;;;;;18.35;10.95;;;23.00;55.50;;;;;;5087928;28;20028;-80
2023/03/19 06:59:52;;;;;;;26.52;13.93;;;23.00;55.60;;;;;;5071376;28;20044;-84
2023/03/19 07:02:18;;;;;;;26.13;14.70;;;23.00;54.20;;;;;;5079879;28;20090;-81
2023/03/19 07:04:44;;;;;;;23.02;13.85;;;23.00;54.10;;;;;;5084389;28;20028;-79
2023/03/19 07:07:10;;;;;;;26.42;14.45;;;23.00;55.00;;;;;;5078030;28;20088;-78
2023/03/19 07:09:36;;;;;;;23.70;14.45;;;22.80;55.30;;;;;;5087414;28;20040;-80
2023/03/19 07:12:02;;;;;;;25.95;15.48;;;22.80;55.80;;;;;;5063778;28;20049;-79
2023/03/19 07:14:28;;;;;;;26.85;15.23;;;22.70;56.30;;;;;;5051923;28;20040;-82
2023/03/19 07:16:55;;;;;;;25.60;14.95;;;22.70;56.50;;;;;;5055777;28;20045;-84
2023/03/19 07:19:22;;;;;;;27.73;14.13;;;22.60;54.80;;;;;;5055806;28;20079;-75
2023/03/19 07:21:48;;;;;;;23.23;13.23;;;22.60;56.70;;;;;;5051799;28;20033;-79
2023/03/19 07:24:14;;;;;;;22.08;12.95;;;22.70;56.60;;;;;;5017242;28;20068;-80
2023/03/19 07:26:41;;;;;;;18.77;11.75;;;22.50;57.20;;;;;;5051480;28;20396;-77
2023/03/19 07:29:07;;;;;;;20.50;11.90;;;22.50;57.20;;;;;;5033558;28;20040;-76
2023/03/19 07:31:33;;;;;;;18.83;12.00;;;22.60;56.60;;;;;;5051031;28;20059;-77
2023/03/19 07:34:00;;;;;;;19.73;11.13;;;22.50;57.50;;;;;;5053635;28;20489;-77
2023/03/19 07:36:26;;;;;;;17.88;10.32;;;22.60;57.70;;;;;;5051318;28;20068;-84
2023/03/19 07:38:52;;;;;;;18.67;10.13;;;22.50;57.80;;;;;;5051553;28;20032;-81
2023/03/19 07:41:18;;;;;;;23.10;10.30;;;22.50;58.00;;;;;;5052221;28;20400;-79
2023/03/19 07:43:44;;;;;;;20.35;10.63;;;22.60;58.30;;;;;;5051318;28;20035;-80
2023/03/19 07:46:10;;;;;;;22.52;11.48;;;22.60;58.40;;;;;;5051335;28;20031;-76
2023/03/19 07:48:36;;;;;;;16.63;9.60;;;22.60;58.40;;;;;;5051286;28;20048;-78
2023/03/19 07:51:02;;;;;;;18.92;10.48;;;22.50;58.70;;;;;;5051331;28;20530;-82
2023/03/19 07:53:29;;;;;;;16.98;9.23;;;22.60;58.40;;;;;;5051361;28;20059;-79
2023/03/19 07:55:55;;;;;;;16.00;9.70;;;22.50;58.70;;;;;;5051134;28;20048;-77
2023/03/19 07:58:21;;;;;;;15.35;9.88;;;22.70;58.60;;;;;;5051437;28;20040;-75
2023/03/19 08:00:47;;;;;;;17.23;9.98;;;22.60;58.90;;;;;;5033523;28;20509;-83
2023/03/19 08:03:13;;;;;;;16.92;9.05;;;22.60;59.00;;;;;;5033276;28;20484;-78
2023/03/19 08:05:39;;;;;;;14.73;9.07;;;22.80;59.20;;;;;;5051553;28;20029;-81
2023/03/19 08:08:06;;;;;;;16.25;9.45;;;22.90;59.00;;;;;;5051446;28;20042;-83
2023/03/19 08:10:32;;;;;;;10.85;6.80;;;22.90;60.40;;;;;;5039531;28;20048;-83
2023/03/19 08:12:59;;;;;;;11.77;6.32;;;22.90;60.40;;;;;;5053037;28;20072;-83
2023/03/19 08:15:25;;;;;;;11.93;7.13;;;22.90;59.90;;;;;;5071916;28;20585;-82
2023/03/19 08:18:03;;;;;;;12.70;6.47;;;22.90;59.30;;;;;;5052423;28;20048;-82
2023/03/19 08:20:30;;;;;;;10.23;7.43;;;23.10;59.10;;;;;;5071532;28;20032;-82
2023/03/19 08:22:56;;;;;;;13.73;8.60;;;23.20;57.40;;;;;;5071751;28;20037;-86
2023/03/19 08:25:23;;;;;;;12.45;8.13;;;23.10;57.40;;;;;;5071208;28;20040;-79
2023/03/19 08:27:50;;;;;;;14.02;7.65;;;23.10;58.40;;;;;;5068877;28;20095;-79
2023/03/19 08:30:16;;;;;;;11.63;7.13;;;23.00;59.00;;;;;;5051960;28;20040;-79
2023/03/19 08:32:43;;;;;;;13.27;7.68;;;23.00;59.10;;;;;;5071117;28;20072;-81
2023/03/19 08:35:10;;;;;;;12.52;7.97;;;23.10;59.60;;;;;;5071080;28;20037;-79
2023/03/19 08:37:36;;;;;;;12.77;8.40;;;23.10;59.80;;;;;;5070837;28;20033;-77
2023/03/19 08:40:03;;;;;;;14.45;8.75;;;23.00;59.90;;;;;;5070810;28;20110;-78
2023/03/19 08:42:30;;;;;;;14.95;8.10;;;23.00;60.40;;;;;;5070850;28;20468;-80
2023/03/19 08:44:56;;;;;;;16.88;9.02;;;23.10;60.40;;;;;;5054566;28;20051;-80
2023/03/19 08:47:23;;;;;;;15.02;8.95;;;23.00;60.60;;;;;;5075055;28;20424;-81
2023/03/19 08:49:50;;;;;;;13.77;8.50;;;23.00;60.80;;;;;;5074543;28;20025;-79
2023/03/19 08:52:18;;;;;;;15.00;8.98;;;23.10;61.00;;;;;;5074727;28;20119;-80
2023/03/19 08:54:44;;;;;;;11.65;8.05;;;23.10;61.40;;;;;;5074678;28;20040;-83
2023/03/19 08:57:10;;;;;;;13.82;8.73;;;23.10;61.00;;;;;;5074943;28;20043;-81
2023/03/19 08:59:36;;;;;;;15.82;8.60;;;23.10;60.60;;;;;;5074839;28;20119;-77
2023/03/19 09:02:02;;;;;;;16.38;9.25;;;23.10;60.70;;;;;;5074469;28;20028;-85
2023/03/19 09:04:28;;;;;;;15.82;7.72;;;23.20;61.00;;;;;;5075930;28;20024;-83
2023/03/19 09:06:55;;;;;;;14.75;8.82;;;23.20;60.80;;;;;;5074562;28;20111;-83
2023/03/19 09:09:23;;;;;;;16.35;9.57;;;23.30;60.20;;;;;;5074576;28;20036;-81
2023/03/19 09:11:49;;;;;;;16.27;8.93;;;23.40;60.00;;;;;;5059720;28;20049;-80
2023/03/19 09:14:16;;;;;;;12.05;7.70;;;23.20;60.10;;;;;;5069782;28;20468;-81
2023/03/19 09:16:42;;;;;;;12.73;8.00;;;23.20;60.50;;;;;;5056431;28;20032;-80
2023/03/19 09:19:09;;;;;;;14.55;8.30;;;23.10;60.80;;;;;;5056423;28;20127;-83
2023/03/19 09:21:35;;;;;;;14.27;8.10;;;23.20;60.90;;;;;;5051385;28;20041;-82
2023/03/19 09:24:01;;;;;;;16.55;8.43;;;23.20;61.20;;;;;;5051149;28;20196;-78
2023/03/19 09:26:28;;;;;;;11.50;7.75;;;23.20;61.00;;;;;;5034882;28;20481;-77
2023/03/19 09:28:55;;;;;;;11.68;7.65;;;23.20;61.00;;;;;;5034836;28;20033;-78
2023/03/19 09:31:21;;;;;;;10.25;6.70;;;23.10;61.20;;;;;;5051418;28;20045;-80
2023/03/19 09:33:47;;;;;;;12.48;7.00;;;23.20;61.30;;;;;;5018282;28;20539;-78
2023/03/19 09:36:13;;;;;;;15.75;8.20;;;23.40;52.70;;;;;;5034804;28;20055;-76
2023/03/19 09:38:39;;;;;;;10.75;8.13;;;23.70;48.60;;;;;;5040286;28;20424;-78
2023/03/19 09:41:21;;;;;;;11.20;8.13;;;23.80;47.40;;;;;;5031317;28;20156;-76
2023/03/19 09:44:11;;;;;;;12.82;7.78;;;24.00;50.60;;;;;;5031037;28;20133;-77
2023/03/19 09:47:11;;;;;;;13.40;8.13;;;24.40;54.00;;;;;;5031490;28;20147;-77
2023/03/19 09:49:41;;;;;;;12.70;7.63;;;24.40;45.60;;;;;;5031113;28;20037;-82
2023/03/19 09:52:32;;;;;;;10.38;7.13;;;24.50;44.60;;;;;;5038227;28;20059;-84
2023/03/19 09:55:09;;;;;;;13.25;7.05;;;24.30;42.00;;;;;;5053077;28;20037;-80
2023/03/19 09:57:37;;;;;;;12.82;6.88;;;24.50;54.00;;;;;;5035732;28;20492;-87
2023/03/19 10:00:16;;;;;;;13.75;6.82;;;24.60;55.60;;;;;;5053536;28;20036;-86
2023/03/19 10:02:43;;;;;;;9.65;7.13;;;24.70;55.70;;;;;;5053803;28;20047;-78
2023/03/19 10:05:15;;;;;;;16.08;6.95;;;24.60;55.20;;;;;;5053257;28;20029;-79
2023/03/19 10:08:06;;;;;;;9.45;6.63;;;24.60;55.90;;;;;;5053463;28;20033;-81
2023/03/19 10:10:41;;;;;;;11.40;6.28;;;24.50;56.00;;;;;;5053377;28;20049;-79
2023/03/19 10:13:53;;;;;;;11.00;6.32;;;24.40;56.20;;;;;;5053432;28;20048;-79
2023/03/19 10:16:25;;;;;;;11.75;6.22;;;24.40;56.70;;;;;;4952532;29;20059;-82
2023/03/19 10:19:05;;;;;;;12.32;7.78;;;24.50;56.60;;;;;;4953143;29;20091;-82
2023/03/19 10:21:43;;;;;;;11.45;7.57;;;24.50;56.50;;;;;;4953142;29;20113;-82
2023/03/19 10:24:30;;;;;;;13.52;7.07;;;24.40;56.80;;;;;;4952824;29;20383;-86
2023/03/19 10:27:00;;;;;;;13.65;7.28;;;24.30;59.30;;;;;;4952542;29;20055;-80
2023/03/19 10:29:27;;;;;;;13.43;7.95;;;24.30;60.80;;;;;;4952191;29;20531;-80
2023/03/19 10:32:30;;;;;;;11.18;7.47;;;24.40;49.50;;;;;;4952211;29;20045;-77
2023/03/19 10:34:59;;;;;;;11.82;8.40;;;24.50;49.00;;;;;;4952123;29;20105;-77
2023/03/19 10:37:29;;;;;;;11.18;8.05;;;24.50;46.30;;;;;;4952352;29;20472;-80
2023/03/19 10:39:57;;;;;;;12.05;8.07;;;24.70;54.60;;;;;;4952544;29;20413;-78
2023/03/19 10:42:41;;;;;;;10.50;7.45;;;24.90;51.00;;;;;;4953315;29;20211;-85
2023/03/19 10:45:28;;;;;;;10.10;7.95;;;25.10;45.40;;;;;;4952783;29;20039;-88
2023/03/19 10:47:58;;;;;;;10.93;8.15;;;25.20;49.70;;;;;;4952409;29;20070;-78
2023/03/19 10:50:53;;;;;;;13.57;9.07;;;25.20;46.60;;;;;;4951948;29;20049;-82
2023/03/19 10:53:25;;;;;;;13.10;7.82;;;25.10;45.80;;;;;;5009741;28;20400;-82
2023/03/19 10:56:04;;;;;;;12.40;7.60;;;25.10;48.10;;;;;;5034322;28;20039;-78
2023/03/19 10:58:32;;;;;;;14.52;8.27;;;25.30;57.20;;;;;;5034509;28;20044;-81
2023/03/19 11:01:10;;;;;;;18.13;8.65;;;25.60;53.80;;;;;;5052454;28;20033;-81
2023/03/19 11:03:50;;;;;;;14.18;8.93;;;25.60;43.80;;;;;;4984366;28;20049;-80
2023/03/19 11:06:22;;;;;;;12.20;7.43;;;25.30;41.50;;;;;;5033785;28;20451;-77
2023/03/19 11:08:58;;;;;;;10.83;8.07;;;25.40;43.20;;;;;;5052222;28;20037;-76
2023/03/19 11:11:42;;;;;;;11.63;7.07;;;25.30;44.30;;;;;;5051855;28;20069;-80
2023/03/19 11:14:20;;;;;;;10.38;7.82;;;25.30;47.80;;;;;;5065075;28;20430;-76
2023/03/19 11:16:57;;;;;;;11.90;7.03;;;25.20;39.00;;;;;;5071875;28;20151;-77
2023/03/19 11:19:28;;;;;;;13.30;9.30;;;25.10;37.30;;;;;;5071978;28;20122;-79
2023/03/19 11:22:05;;;;;;;11.82;8.30;;;25.00;38.20;;;;;;5072136;28;20078;-77
2023/03/19 11:24:33;;;;;;;10.90;7.15;;;25.00;39.30;;;;;;5071840;28;20575;-82
2023/03/19 11:26:59;;;;;;;12.73;8.18;;;25.00;42.80;;;;;;5071824;28;20032;-80
2023/03/19 11:29:29;;;;;;;14.18;7.97;;;24.90;52.30;;;;;;5071663;28;20040;-79
2023/03/19 11:31:58;;;;;;;18.23;8.18;;;25.00;53.20;;;;;;5071650;28;20020;-79
2023/03/19 11:34:45;;;;;;;14.40;8.80;;;24.90;53.40;;;;;;5068523;28;20461;-79
2023/03/19 11:37:18;;;;;;;11.10;7.22;;;24.90;53.80;;;;;;5033711;28;20110;-80
2023/03/19 11:40:02;;;;;;;14.07;8.65;;;24.80;54.10;;;;;;5051475;28;20416;-76
2023/03/19 11:42:41;;;;;;;11.70;7.30;;;24.70;54.80;;;;;;5051759;28;20029;-81
2023/03/19 11:45:16;;;;;;;15.25;8.52;;;24.70;55.40;;;;;;5051203;28;20025;-77
2023/03/19 11:47:48;;;;;;;14.38;8.43;;;24.60;55.40;;;;;;5033429;28;20033;-77
2023/03/19 11:50:21;;;;;;;11.98;7.15;;;24.70;56.00;;;;;;5033398;28;20037;-69
2023/03/19 11:53:16;;;;;;;12.60;7.18;;;24.60;56.10;;;;;;5033235;28;20037;-70
2023/03/19 11:56:22;;;;;;;14.10;8.45;;;24.50;55.80;;;;;;4969967;28;20135;-71
2023/03/19 11:59:08;;;;;;;12.32;7.78;;;24.50;56.20;;;;;;4969912;28;20042;-70
2023/03/19 12:01:53;;;;;;;12.57;7.65;;;24.50;56.60;;;;;;4969894;28;20042;-71
2023/03/19 12:04:41;;;;;;;14.32;8.60;;;24.60;56.80;;;;;;4953835;28;20035;-71
2023/03/19 12:07:36;;;;;;;12.25;8.20;;;24.40;57.20;;;;;;4969824;28;20136;-70
2023/03/19 12:10:29;;;;;;;14.95;7.72;;;24.40;57.70;;;;;;4950226;29;20050;-69
2023/03/19 12:13:06;;;;;;;13.97;7.80;;;24.40;58.00;;;;;;4950643;29;20582;-70
2023/03/19 12:15:56;;;;;;;11.70;8.32;;;24.30;58.20;;;;;;4950300;29;20138;-74
2023/03/19 12:18:46;;;;;;;13.73;7.85;;;24.20;57.90;;;;;;4954071;28;20431;-75
2023/03/19 12:21:31;;;;;;;12.55;8.18;;;24.30;58.10;;;;;;4956926;28;20043;-73
2023/03/19 12:24:31;;;;;;;16.50;8.77;;;24.20;58.10;;;;;;4956731;28;20167;-70
2023/03/19 12:27:05;;;;;;;11.00;6.80;;;24.30;57.80;;;;;;4956786;28;20059;-70
2023/03/19 12:29:54;;;;;;;11.52;7.43;;;24.30;57.70;;;;;;4957727;29;20043;-70
2023/03/19 12:32:42;;;;;;;10.98;6.15;;;24.20;57.30;;;;;;4964873;28;20568;-71
2023/03/19 12:35:15;;;;;;;14.77;7.38;;;24.10;57.90;;;;;;4959800;28;20141;-70
2023/03/19 12:37:55;;;;;;;11.50;6.72;;;24.30;59.80;;;;;;4976162;28;20097;-71
2023/03/19 12:40:45;;;;;;;14.13;7.38;;;24.30;61.30;;;;;;4960001;28;20054;-70
2023/03/19 12:43:34;;;;;;;11.40;7.00;;;24.30;60.00;;;;;;4976102;28;20403;-71
2023/03/19 12:46:12;;;;;;;12.45;7.03;;;24.30;59.10;;;;;;4900477;29;20044;-71
2023/03/19 12:48:45;;;;;;;12.18;7.72;;;24.30;58.50;;;;;;4918619;29;20052;-70
2023/03/19 12:51:14;;;;;;;;;;;24.40;57.80;;;;;;4918947;29;20044;-71
2023/03/19 12:53:40;;;;;;;14.55;8.27;;;24.20;57.90;;;;;;4918582;29;19911;-71